Main page
METAR-TAF:

METAR-TAF

Airports :

Cork Airport

Cork, Ireland

latitude: 51-51N, longitude: 008-29W, elevation: 153 m

Current weather observation

The report was made 19 minutes ago, at 10:00 UTC
Wind 16 kt from the East
Temperature 8°C
Humidity 76%
Pressure 1020 hPa
Visibility 10 km or more
Few clouds at a height of 1700 ft
Scattered clouds at a height of 2200 ft

METAR: EICK 191000Z 10016KT 9999 FEW017 SCT022 08/04 Q1020 NOSIG

Time: 10:19 (10:19 UTC)

Forecast

The report was made 5 hours and 19 minutes ago, at 05:00 UTC
Forecast valid from 19 at 06 UTC to 20 at 06 UTC
Wind 13 kt from the East
Visibility 10 km or more
no clouds below 1500 m and no cumulonimbus
Temporary
from 19 at 09 UTC to 19 at 15 UTC
Wind 16 kt from the East with gusts up to 26 kt
Becoming
from 20 at 00 UTC to 20 at 02 UTC
Wind 13 kt from the Northeast

TAF: EICK 190500Z 1906/2006 09013KT CAVOK TEMPO 1909/1915 10016G26KT BECMG 2000/2002 05013KT

Weather observations and forecasts of more than 4000 airports (METAR and TAF reports).

The available stations are represented by yellow and red dots on the map.

Hover mouse over dot to see the name of the station.

Then click to see weather observations and forecasts.

To change the map : click on the green buttons with a black cross to zoom in, on the green button with a dash to zoom out, or on the green arrows for adjacent maps.


METAR-TAF: